createdAt,value
2023-09-08T00:02:29.718Z,13.95
2023-09-08T00:04:56.814Z,12.77
2023-09-08T00:07:23.484Z,17.23
2023-09-08T00:09:50.140Z,13.55
2023-09-08T00:12:16.842Z,17.27
2023-09-08T00:14:43.713Z,13.07
2023-09-08T00:17:10.386Z,13.65
2023-09-08T00:19:37.076Z,15.93
2023-09-08T00:22:07.043Z,13.88
2023-09-08T00:24:34.120Z,12.90
2023-09-08T00:27:00.652Z,12.93
2023-09-08T00:29:27.283Z,12.70
2023-09-08T00:31:53.811Z,12.88
2023-09-08T00:34:20.355Z,13.13
2023-09-08T00:36:46.825Z,14.05
2023-09-08T00:39:13.362Z,13.73
2023-09-08T00:41:39.889Z,13.80
2023-09-08T00:44:06.448Z,12.43
2023-09-08T00:46:33.280Z,13.68
2023-09-08T00:48:59.875Z,12.13
2023-09-08T00:51:26.912Z,12.52
2023-09-08T00:53:54.143Z,11.88
2023-09-08T00:56:21.555Z,11.88
2023-09-08T00:58:48.196Z,12.32
2023-09-08T01:01:15.260Z,12.60
2023-09-08T01:03:41.766Z,11.75
2023-09-08T01:06:08.415Z,13.25
2023-09-08T01:08:37.109Z,11.48
2023-09-08T01:11:04.194Z,11.35
2023-09-08T01:13:30.650Z,13.63
2023-09-08T01:15:57.304Z,13.65
2023-09-08T01:18:24.089Z,14.02
2023-09-08T01:21:12.862Z,14.50
2023-09-08T01:24:07.202Z,13.07
2023-09-08T01:26:38.036Z,11.98
2023-09-08T01:29:06.419Z,11.45
2023-09-08T01:31:34.200Z,10.48
2023-09-08T01:34:05.771Z,13.38
2023-09-08T01:36:32.352Z,11.00
2023-09-08T01:38:58.940Z,10.35
2023-09-08T01:41:25.496Z,9.93
2023-09-08T01:43:51.969Z,9.85
2023-09-08T01:46:18.597Z,10.55
2023-09-08T01:48:45.709Z,9.27
2023-09-08T01:51:12.452Z,10.15
2023-09-08T01:53:39.070Z,12.10
2023-09-08T01:56:05.681Z,9.57
2023-09-08T01:58:33.836Z,11.77
2023-09-08T02:01:06.655Z,9.65
2023-09-08T02:03:34.001Z,10.82
2023-09-08T02:06:00.662Z,10.43
2023-09-08T02:08:27.149Z,10.35
2023-09-08T02:10:53.743Z,12.77
2023-09-08T02:13:20.271Z,11.68
2023-09-08T02:15:47.008Z,9.90
2023-09-08T02:18:14.394Z,9.27
2023-09-08T02:20:41.069Z,12.38
2023-09-08T02:23:08.747Z,11.13
2023-09-08T02:25:35.473Z,11.02
2023-09-08T02:28:02.384Z,10.32
2023-09-08T02:30:28.935Z,12.73
2023-09-08T02:32:56.385Z,12.90
2023-09-08T02:35:25.772Z,11.68
2023-09-08T02:37:52.462Z,12.00
2023-09-08T02:40:20.166Z,13.40
2023-09-08T02:42:46.770Z,14.73
2023-09-08T02:45:13.366Z,13.35
2023-09-08T02:47:39.828Z,11.98
2023-09-08T02:50:06.708Z,12.35
2023-09-08T02:52:33.253Z,11.65
2023-09-08T02:54:59.710Z,11.80
2023-09-08T02:57:26.218Z,12.65
2023-09-08T02:59:52.804Z,13.43
2023-09-08T03:02:19.520Z,11.88
2023-09-08T03:04:46.130Z,11.82
2023-09-08T03:07:12.653Z,12.90
2023-09-08T03:09:39.165Z,13.02
2023-09-08T03:12:05.835Z,13.68
2023-09-08T03:14:32.340Z,13.65
2023-09-08T03:16:58.891Z,12.50
2023-09-08T03:19:25.531Z,11.07
2023-09-08T03:21:52.097Z,13.10
2023-09-08T03:24:18.685Z,11.85
2023-09-08T03:26:45.301Z,14.40
2023-09-08T03:29:11.954Z,14.15
2023-09-08T03:31:38.858Z,15.20
2023-09-08T03:34:05.446Z,14.68
2023-09-08T03:36:32.229Z,14.00
2023-09-08T03:38:59.332Z,13.55
2023-09-08T03:41:26.138Z,15.10
2023-09-08T03:43:52.667Z,14.70
2023-09-08T03:46:19.281Z,15.10
2023-09-08T03:48:45.914Z,15.65
2023-09-08T03:51:12.410Z,14.27
2023-09-08T03:53:39.236Z,13.75
2023-09-08T03:56:06.198Z,15.48
2023-09-08T03:58:32.941Z,13.45
2023-09-08T04:00:59.623Z,13.73
2023-09-08T04:03:26.548Z,14.65
2023-09-08T04:05:53.138Z,15.13
2023-09-08T04:08:19.566Z,14.55
2023-09-08T04:10:46.350Z,16.77
2023-09-08T04:13:12.792Z,14.82
2023-09-08T04:15:42.210Z,16.17
2023-09-08T04:18:09.173Z,14.10
2023-09-08T04:20:35.858Z,16.42
2023-09-08T04:23:02.417Z,14.80
2023-09-08T04:25:28.906Z,14.95
2023-09-08T04:27:55.345Z,13.32
2023-09-08T04:30:22.531Z,16.25
2023-09-08T04:32:49.405Z,15.68
2023-09-08T04:35:16.006Z,16.10
2023-09-08T04:37:42.536Z,17.00
2023-09-08T04:40:09.416Z,15.57
2023-09-08T04:42:35.988Z,14.52
2023-09-08T04:45:02.725Z,14.18
2023-09-08T04:47:29.400Z,15.98
2023-09-08T04:49:55.914Z,13.18
2023-09-08T04:52:22.649Z,13.50
2023-09-08T04:54:49.233Z,14.35
2023-09-08T04:57:22.913Z,15.77
2023-09-08T04:59:50.614Z,12.75
2023-09-08T05:02:19.402Z,16.58
2023-09-08T05:04:46.116Z,16.15
2023-09-08T05:07:14.260Z,14.75
2023-09-08T05:09:40.814Z,15.32
2023-09-08T05:12:07.712Z,15.82
2023-09-08T05:14:34.268Z,17.00
2023-09-08T05:17:00.804Z,16.88
2023-09-08T05:19:27.410Z,17.35
2023-09-08T05:21:56.014Z,16.83
2023-09-08T05:24:22.783Z,17.60
2023-09-08T05:26:49.466Z,16.77
2023-09-08T05:29:16.040Z,15.73
2023-09-08T05:31:42.999Z,17.58
2023-09-08T05:34:09.428Z,16.25
2023-09-08T05:36:39.117Z,17.60
2023-09-08T05:39:06.467Z,18.23
2023-09-08T05:41:34.758Z,17.05
2023-09-08T05:44:01.687Z,17.20
2023-09-08T05:46:28.682Z,17.60
2023-09-08T05:48:55.222Z,13.75
2023-09-08T05:51:21.809Z,15.85
2023-09-08T05:53:48.268Z,18.40
2023-09-08T05:56:14.755Z,17.75
2023-09-08T05:58:41.230Z,18.35
2023-09-08T06:01:08.535Z,18.38
2023-09-08T06:03:35.395Z,18.00
2023-09-08T06:06:02.023Z,18.05
2023-09-08T06:08:28.602Z,18.52
2023-09-08T06:10:55.130Z,19.48
2023-09-08T06:13:21.943Z,19.65
2023-09-08T06:15:48.526Z,17.63
2023-09-08T06:18:15.095Z,18.23
2023-09-08T06:20:48.348Z,18.10
2023-09-08T06:23:15.755Z,19.45
2023-09-08T06:25:42.682Z,19.50
2023-09-08T06:28:09.140Z,20.55
2023-09-08T06:30:42.615Z,18.73
2023-09-08T06:33:09.795Z,17.98
2023-09-08T06:35:36.503Z,21.20
2023-09-08T06:38:03.071Z,17.85
2023-09-08T06:40:32.650Z,19.27
2023-09-08T06:43:01.395Z,20.20
2023-09-08T06:45:29.410Z,19.60
2023-09-08T06:47:56.349Z,19.75
2023-09-08T06:50:24.100Z,19.70
2023-09-08T06:52:51.271Z,22.67
2023-09-08T06:55:18.596Z,21.35
2023-09-08T06:57:45.846Z,19.10
2023-09-08T07:00:13.653Z,18.85
2023-09-08T07:02:40.788Z,21.58
2023-09-08T07:05:09.331Z,20.42
2023-09-08T07:07:36.637Z,20.25
2023-09-08T07:10:06.927Z,20.23
2023-09-08T07:12:33.826Z,21.27
2023-09-08T07:15:03.628Z,19.27
2023-09-08T07:17:30.399Z,21.88
2023-09-08T07:19:57.076Z,18.30
2023-09-08T07:22:23.592Z,21.20
2023-09-08T07:24:50.138Z,20.08
2023-09-08T07:27:16.683Z,20.75
2023-09-08T07:29:43.294Z,19.23
2023-09-08T07:32:09.822Z,19.08
2023-09-08T07:34:36.341Z,18.88
2023-09-08T07:37:02.819Z,22.38
2023-09-08T07:39:29.340Z,18.73
2023-09-08T07:41:59.106Z,20.17
2023-09-08T07:44:28.291Z,17.83
2023-09-08T07:46:56.423Z,19.60
2023-09-08T07:49:23.083Z,17.30
2023-09-08T07:51:49.623Z,17.73
2023-09-08T07:54:16.190Z,16.35
2023-09-08T07:56:42.919Z,16.13
2023-09-08T07:59:09.463Z,17.08
2023-09-08T08:01:36.263Z,18.02
2023-09-08T08:04:04.777Z,15.88
2023-09-08T08:06:31.567Z,17.05
2023-09-08T08:08:59.665Z,15.75
2023-09-08T08:11:29.220Z,17.63
2023-09-08T08:13:57.594Z,15.63
2023-09-08T08:16:25.611Z,17.98
2023-09-08T08:18:52.429Z,19.52
2023-09-08T08:21:19.166Z,16.92
2023-09-08T08:23:45.638Z,13.95
2023-09-08T08:26:12.137Z,16.50
2023-09-08T08:28:38.773Z,16.70
2023-09-08T08:31:05.906Z,14.38
2023-09-08T08:33:33.149Z,16.52
2023-09-08T08:35:59.906Z,15.15
2023-09-08T08:38:26.370Z,14.00
2023-09-08T08:40:52.857Z,16.35
2023-09-08T08:43:20.656Z,14.88
2023-09-08T08:45:48.711Z,15.45
2023-09-08T08:48:19.304Z,14.00
2023-09-08T08:50:45.971Z,13.98
2023-09-08T08:53:13.786Z,13.13
2023-09-08T08:55:41.274Z,15.85
2023-09-08T08:58:07.746Z,14.82
2023-09-08T09:00:38.818Z,12.20
2023-09-08T09:03:14.836Z,14.25
2023-09-08T09:05:47.708Z,12.43
2023-09-08T09:08:17.093Z,12.80
2023-09-08T09:10:43.910Z,14.13
2023-09-08T09:13:10.626Z,15.98
2023-09-08T09:15:37.127Z,11.43
2023-09-08T09:18:08.369Z,14.80
2023-09-08T09:20:36.030Z,16.67
2023-09-08T09:23:02.786Z,12.70
2023-09-08T09:25:31.923Z,13.35
2023-09-08T09:28:01.175Z,14.70
2023-09-08T09:30:28.988Z,13.27
2023-09-08T09:33:06.185Z,13.30
2023-09-08T09:35:53.451Z,11.55
2023-09-08T09:38:21.712Z,12.48
2023-09-08T09:40:49.410Z,12.25
2023-09-08T09:43:17.756Z,10.95
2023-09-08T09:45:44.419Z,11.75
2023-09-08T09:48:12.009Z,12.70
2023-09-08T09:50:46.489Z,11.95
2023-09-08T09:53:14.729Z,13.60
2023-09-08T09:55:42.711Z,11.45
2023-09-08T09:58:11.566Z,12.13
2023-09-08T10:00:39.270Z,11.68
2023-09-08T10:03:06.936Z,11.77
2023-09-08T10:05:34.984Z,12.52
2023-09-08T10:08:01.874Z,13.25
2023-09-08T10:10:31.656Z,12.27
2023-09-08T10:13:03.753Z,12.23
2023-09-08T10:15:32.157Z,12.10
2023-09-08T10:18:00.885Z,12.98
2023-09-08T10:20:29.764Z,11.43
2023-09-08T10:23:13.226Z,12.80
2023-09-08T10:25:45.202Z,10.65
2023-09-08T10:28:13.937Z,12.63
2023-09-08T10:30:41.050Z,14.07
2023-09-08T10:33:08.595Z,12.98
2023-09-08T10:35:35.974Z,11.73
2023-09-08T10:38:28.298Z,12.55
2023-09-08T10:41:15.308Z,13.90
2023-09-08T10:43:55.806Z,12.30
2023-09-08T10:46:24.474Z,12.00
2023-09-08T10:48:51.105Z,12.80
2023-09-08T10:51:22.366Z,11.50
2023-09-08T10:53:50.631Z,13.18
2023-09-08T10:56:18.490Z,11.30
2023-09-08T10:58:51.137Z,12.82
2023-09-08T11:01:20.387Z,14.40
2023-09-08T11:03:50.748Z,11.60
2023-09-08T11:06:23.374Z,14.45
2023-09-08T11:08:54.115Z,13.52
2023-09-08T11:11:21.184Z,13.98
2023-09-08T11:13:49.058Z,18.65
2023-09-08T11:16:17.000Z,12.35
2023-09-08T11:18:44.085Z,12.80
2023-09-08T11:21:12.046Z,13.07
2023-09-08T11:23:39.362Z,11.60
2023-09-08T11:26:07.298Z,13.73
2023-09-08T11:28:34.356Z,11.63
2023-09-08T11:31:01.285Z,9.63
2023-09-08T11:33:28.638Z,12.07
2023-09-08T11:35:59.048Z,9.90
2023-09-08T11:38:30.869Z,12.15
2023-09-08T11:40:58.772Z,10.95
2023-09-08T11:43:28.736Z,12.52
2023-09-08T11:45:56.686Z,11.18
2023-09-08T11:48:25.577Z,10.75
2023-09-08T11:50:54.935Z,13.93
2023-09-08T11:53:24.928Z,11.23
2023-09-08T11:58:19.509Z,12.82
2023-09-08T12:00:48.787Z,11.02
2023-09-08T12:03:17.468Z,10.85
2023-09-08T12:05:51.709Z,9.32
2023-09-08T12:08:18.409Z,10.10
2023-09-08T12:10:45.184Z,12.20
2023-09-08T12:13:14.467Z,12.88
2023-09-08T12:15:42.258Z,12.98
2023-09-08T12:18:11.250Z,10.40
2023-09-08T12:20:38.876Z,11.70
2023-09-08T12:23:10.794Z,10.85
2023-09-08T12:25:46.502Z,13.48
2023-09-08T12:28:12.998Z,11.25
2023-09-08T12:30:39.889Z,9.63
2023-09-08T12:33:06.724Z,9.75
2023-09-08T12:35:33.601Z,11.23
2023-09-08T12:38:02.862Z,14.18
2023-09-08T12:40:31.239Z,10.88
2023-09-08T12:43:03.429Z,11.35
2023-09-08T12:45:36.759Z,13.65
2023-09-08T12:48:04.597Z,10.05
2023-09-08T12:50:31.933Z,9.57
2023-09-08T12:52:58.741Z,11.18
2023-09-08T12:55:25.391Z,11.30
2023-09-08T12:57:55.504Z,11.55
2023-09-08T13:00:24.403Z,10.07
2023-09-08T13:02:51.385Z,11.57
2023-09-08T13:05:18.619Z,12.40
2023-09-08T13:07:45.325Z,10.38
2023-09-08T13:10:11.985Z,11.02
2023-09-08T13:12:39.359Z,11.93
2023-09-08T13:15:06.597Z,9.00
2023-09-08T13:17:33.057Z,9.95
2023-09-08T13:19:59.499Z,9.55
2023-09-08T13:22:26.426Z,9.75
2023-09-08T13:24:52.944Z,10.45
2023-09-08T13:27:19.911Z,11.02
2023-09-08T13:29:46.444Z,9.73
2023-09-08T13:32:13.503Z,11.02
2023-09-08T13:34:40.125Z,10.57
2023-09-08T13:37:06.661Z,13.10
2023-09-08T13:39:33.242Z,10.27
2023-09-08T13:42:01.828Z,11.48
2023-09-08T13:44:28.883Z,7.97
2023-09-08T13:46:56.397Z,8.07
2023-09-08T13:49:27.437Z,7.63
2023-09-08T13:51:57.171Z,9.43
2023-09-08T13:54:25.066Z,8.48
2023-09-08T13:57:01.651Z,8.68
2023-09-08T13:59:30.236Z,8.68
2023-09-08T14:02:28.917Z,9.20
2023-09-08T14:04:51.564Z,10.68
2023-09-08T14:09:54.924Z,9.65
2023-09-08T14:12:34.564Z,8.30
2023-09-08T14:15:02.695Z,8.82
2023-09-08T14:17:29.173Z,9.45
2023-09-08T14:19:55.689Z,7.25
2023-09-08T14:22:22.391Z,10.32
2023-09-08T14:24:48.879Z,9.00
2023-09-08T14:27:15.417Z,10.18
2023-09-08T14:29:41.920Z,10.07
2023-09-08T14:32:08.643Z,8.60
2023-09-08T14:34:35.101Z,8.98
2023-09-08T14:37:04.096Z,9.45
2023-09-08T14:39:31.305Z,9.98
2023-09-08T14:41:57.782Z,8.90
2023-09-08T14:44:24.320Z,9.18
2023-09-08T14:46:52.941Z,7.97
2023-09-08T14:49:19.577Z,8.98
2023-09-08T14:51:46.142Z,9.73
2023-09-08T14:54:12.740Z,8.07
2023-09-08T14:56:39.207Z,8.15
2023-09-08T14:59:05.752Z,9.93
2023-09-08T15:01:32.571Z,11.73
2023-09-08T15:03:59.353Z,10.25
2023-09-08T15:06:28.445Z,8.48
2023-09-08T15:08:55.284Z,8.50
2023-09-08T15:11:21.890Z,10.55
2023-09-08T15:13:48.688Z,10.68
2023-09-08T15:16:15.870Z,8.82
2023-09-08T15:18:42.640Z,8.18
2023-09-08T15:21:09.282Z,8.68
2023-09-08T15:23:36.810Z,9.68
2023-09-08T15:26:03.705Z,10.27
2023-09-08T15:28:30.547Z,9.88
2023-09-08T15:30:57.377Z,10.32
2023-09-08T15:33:24.813Z,9.98
2023-09-08T15:35:55.844Z,9.27
2023-09-08T15:38:23.747Z,11.18
2023-09-08T15:41:20.348Z,9.82
2023-09-08T15:43:49.502Z,10.13
2023-09-08T15:46:16.050Z,10.63
2023-09-08T15:48:42.604Z,10.60
2023-09-08T15:51:10.761Z,11.32
2023-09-08T15:53:39.056Z,9.10
2023-09-08T15:56:07.358Z,11.48
2023-09-08T15:58:34.369Z,11.48
2023-09-08T16:01:01.596Z,9.88
2023-09-08T16:03:28.314Z,8.82
2023-09-08T16:05:54.990Z,11.55
2023-09-08T16:08:23.467Z,10.02
2023-09-08T16:10:52.691Z,13.15
2023-09-08T16:13:20.868Z,12.98
2023-09-08T16:15:47.406Z,11.02
2023-09-08T16:18:14.200Z,10.10
2023-09-08T16:20:40.860Z,10.25
2023-09-08T16:23:08.431Z,10.90
2023-09-08T16:25:35.051Z,9.45
2023-09-08T16:28:01.683Z,10.20
2023-09-08T16:30:28.826Z,10.18
2023-09-08T16:32:56.212Z,8.80
2023-09-08T16:35:22.856Z,9.20
2023-09-08T16:37:49.352Z,9.70
2023-09-08T16:40:19.019Z,12.38
2023-09-08T16:42:45.742Z,11.45
2023-09-08T16:45:13.773Z,8.95
2023-09-08T16:50:08.956Z,13.38
2023-09-08T16:52:35.700Z,10.55
2023-09-08T16:55:02.138Z,9.90
2023-09-08T16:57:28.640Z,10.20
2023-09-08T16:59:55.188Z,11.02
2023-09-08T17:02:21.676Z,10.45
2023-09-08T17:04:48.336Z,10.93
2023-09-08T17:07:15.937Z,12.52
2023-09-08T17:09:42.740Z,10.88
2023-09-08T17:12:10.730Z,8.90
2023-09-08T17:14:37.641Z,9.80
2023-09-08T17:17:04.664Z,10.63
2023-09-08T17:19:31.272Z,11.43
2023-09-08T17:21:59.285Z,10.65
2023-09-08T17:24:27.132Z,12.32
2023-09-08T17:26:53.629Z,11.07
2023-09-08T17:29:20.064Z,10.55
2023-09-08T17:31:47.028Z,12.43
2023-09-08T17:34:19.946Z,12.38
2023-09-08T17:36:54.188Z,12.05
2023-09-08T17:39:20.887Z,11.80
2023-09-08T17:41:48.990Z,13.23
2023-09-08T17:44:15.491Z,12.23
2023-09-08T17:46:42.712Z,12.60
2023-09-08T17:49:09.230Z,11.35
2023-09-08T17:51:35.876Z,15.73
2023-09-08T17:54:03.109Z,12.00
2023-09-08T17:56:30.348Z,11.30
2023-09-08T17:58:57.158Z,13.73
2023-09-08T18:01:23.691Z,13.13
2023-09-08T18:03:50.374Z,12.48
2023-09-08T18:06:17.063Z,13.90
2023-09-08T18:08:44.719Z,12.75
2023-09-08T18:11:11.412Z,12.70
2023-09-08T18:13:39.264Z,12.25
2023-09-08T18:16:06.042Z,12.95
2023-09-08T18:18:33.791Z,12.32
2023-09-08T18:21:00.297Z,13.90
2023-09-08T18:23:26.793Z,13.32
2023-09-08T18:25:55.353Z,12.50
2023-09-08T18:28:22.647Z,14.43
2023-09-08T18:30:49.224Z,14.68
2023-09-08T18:33:15.797Z,13.65
2023-09-08T18:35:42.729Z,17.48
2023-09-08T18:38:09.990Z,17.40
2023-09-08T18:40:36.743Z,16.88
2023-09-08T18:43:03.895Z,16.65
2023-09-08T18:45:30.456Z,15.57
2023-09-08T18:47:57.016Z,18.83
2023-09-08T18:50:23.527Z,17.17
2023-09-08T18:52:50.121Z,20.27
2023-09-08T18:55:16.652Z,18.88
2023-09-08T18:57:43.206Z,17.50
2023-09-08T19:00:10.613Z,19.23
2023-09-08T19:02:37.312Z,20.30
2023-09-08T19:05:05.625Z,20.30
2023-09-08T19:07:32.600Z,15.43
2023-09-08T19:09:59.206Z,17.65
2023-09-08T19:12:25.924Z,16.85
2023-09-08T19:14:52.556Z,14.98
2023-09-08T19:17:19.038Z,16.88
2023-09-08T19:19:45.552Z,17.20
2023-09-08T19:22:12.142Z,20.85
2023-09-08T19:24:38.668Z,15.77
2023-09-08T19:27:05.293Z,14.75
2023-09-08T19:29:31.798Z,19.65
2023-09-08T19:31:59.439Z,18.77
2023-09-08T19:34:25.888Z,18.10
2023-09-08T19:36:52.491Z,17.38
2023-09-08T19:39:19.109Z,20.25
2023-09-08T19:41:45.749Z,20.25
2023-09-08T19:44:12.303Z,24.15
2023-09-08T19:46:38.820Z,24.48
2023-09-08T19:49:08.196Z,22.10
2023-09-08T19:51:34.695Z,19.27
2023-09-08T19:54:01.670Z,18.00
2023-09-08T19:56:29.708Z,18.30
2023-09-08T19:58:56.128Z,16.85
2023-09-08T20:01:25.590Z,16.80
2023-09-08T20:03:52.099Z,17.50
2023-09-08T20:06:18.652Z,17.20
2023-09-08T20:08:45.225Z,17.10
2023-09-08T20:11:11.706Z,16.02
2023-09-08T20:13:38.399Z,17.25
2023-09-08T20:16:07.978Z,18.65
2023-09-08T20:18:36.076Z,16.50
2023-09-08T20:21:05.696Z,15.98
2023-09-08T20:23:33.710Z,22.63
2023-09-08T20:26:00.636Z,18.15
2023-09-08T20:28:27.159Z,19.52
2023-09-08T20:31:12.988Z,19.15
2023-09-08T20:33:41.096Z,21.45
2023-09-08T20:36:07.668Z,17.60
2023-09-08T20:38:34.372Z,17.85
2023-09-08T20:41:01.304Z,15.57
2023-09-08T20:43:27.956Z,15.52
2023-09-08T20:46:03.784Z,15.55
2023-09-08T20:48:35.456Z,16.08
2023-09-08T20:51:07.792Z,17.85
2023-09-08T20:53:39.412Z,18.17
2023-09-08T20:56:12.656Z,18.02
2023-09-08T20:58:40.601Z,19.08
2023-09-08T21:01:07.641Z,17.92
2023-09-08T21:03:36.167Z,17.40
2023-09-08T21:06:03.633Z,18.00
2023-09-08T21:08:33.314Z,16.17
2023-09-08T21:10:59.943Z,18.55
2023-09-08T21:13:27.017Z,19.92
2023-09-08T21:15:53.810Z,19.50
2023-09-08T21:18:20.649Z,21.98
2023-09-08T21:20:49.970Z,21.17
2023-09-08T21:23:17.881Z,21.50
2023-09-08T21:25:44.465Z,19.88
2023-09-08T21:28:10.991Z,20.58
2023-09-08T21:30:37.543Z,18.35
2023-09-08T21:33:04.392Z,18.95
2023-09-08T21:35:32.053Z,18.10
2023-09-08T21:37:58.728Z,19.38
2023-09-08T21:40:25.398Z,21.38
2023-09-08T21:42:52.084Z,19.98
2023-09-08T21:45:18.858Z,20.15
2023-09-08T21:47:48.084Z,17.23
2023-09-08T21:50:15.843Z,17.73
2023-09-08T21:52:42.539Z,18.50
2023-09-08T21:55:10.728Z,19.20
2023-09-08T21:57:37.394Z,19.15
2023-09-08T22:00:06.669Z,18.13
2023-09-08T22:02:33.511Z,18.65
2023-09-08T22:05:00.425Z,18.77
2023-09-08T22:07:27.027Z,16.27
2023-09-08T22:09:54.100Z,18.45
2023-09-08T22:12:20.851Z,19.20
2023-09-08T22:14:49.966Z,19.05
2023-09-08T22:17:16.880Z,16.92
2023-09-08T22:19:43.693Z,19.70
2023-09-08T22:22:10.205Z,18.70
2023-09-08T22:24:36.666Z,18.58
2023-09-08T22:27:05.049Z,19.30
2023-09-08T22:29:32.059Z,19.40
2023-09-08T22:31:58.851Z,22.25
2023-09-08T22:34:26.537Z,19.73
2023-09-08T22:36:53.205Z,19.42
2023-09-08T22:39:19.670Z,18.17
2023-09-08T22:41:46.154Z,21.17
2023-09-08T22:44:12.737Z,16.48
2023-09-08T22:46:39.261Z,16.85
2023-09-08T22:49:05.795Z,15.02
2023-09-08T22:51:32.452Z,15.27
2023-09-08T22:53:58.914Z,17.23
2023-09-08T22:56:25.549Z,17.00
2023-09-08T22:58:52.103Z,15.23
2023-09-08T23:01:18.933Z,15.93
2023-09-08T23:03:45.735Z,16.42
2023-09-08T23:06:14.827Z,18.05
2023-09-08T23:08:41.395Z,19.08
2023-09-08T23:11:07.986Z,17.67
2023-09-08T23:13:37.862Z,18.35
2023-09-08T23:16:04.936Z,16.35
2023-09-08T23:18:31.800Z,16.90
2023-09-08T23:20:58.289Z,16.42
2023-09-08T23:23:24.920Z,16.30
2023-09-08T23:25:51.523Z,18.27
2023-09-08T23:28:18.115Z,17.63
2023-09-08T23:30:44.654Z,19.77
2023-09-08T23:33:11.620Z,16.77
2023-09-08T23:35:38.240Z,17.08
2023-09-08T23:38:04.973Z,18.13
2023-09-08T23:40:31.508Z,18.98
2023-09-08T23:42:58.253Z,17.75
2023-09-08T23:45:25.356Z,16.20
2023-09-08T23:47:51.869Z,18.40
2023-09-08T23:50:18.419Z,16.85
2023-09-08T23:52:44.994Z,17.05
2023-09-08T23:55:12.024Z,15.55
2023-09-08T23:57:38.564Z,16.42
